Time;durP1;ratioP1;P1;durP2;ratioP2;P2;SDS_P1;SDS_P2;PMS_P1;PMS_P2;Temp;Humidity;BMP_temperature;BMP_pressure;BME280_temperature;BME280_humidity;BME280_pressure;Samples;Min_cycle;Max_cycle;Signal;HPM_P1;HPM_P2
2021/04/26 00:02:22;;;;;;;19.77;9.32;;;12.80;55.20;;;;;;5089095;28;20530;-77
2021/04/26 00:04:49;;;;;;;16.38;9.02;;;12.80;55.20;;;;;;5077079;28;20425;-77
2021/04/26 00:07:15;;;;;;;19.75;10.52;;;12.70;55.10;;;;;;5090457;28;20021;-77
2021/04/26 00:09:40;;;;;;;19.23;9.90;;;12.70;54.60;;;;;;5077066;28;20027;-77
2021/04/26 00:12:07;;;;;;;14.02;9.07;;;12.70;54.90;;;;;;5088997;28;20025;-77
2021/04/26 00:14:33;;;;;;;17.73;10.48;;;12.70;54.80;;;;;;5076642;28;20067;-77
2021/04/26 00:16:59;;;;;;;17.25;10.48;;;12.90;54.20;;;;;;5077157;28;20051;-77
2021/04/26 00:19:25;;;;;;;18.80;11.32;;;12.90;54.60;;;;;;5077694;28;20099;-77
2021/04/26 00:21:50;;;;;;;19.95;10.00;;;12.60;54.20;;;;;;5088661;28;20086;-77
2021/04/26 00:24:16;;;;;;;19.08;10.73;;;12.50;54.80;;;;;;5080365;28;20367;-77
2021/04/26 00:26:42;;;;;;;14.48;10.00;;;12.40;55.00;;;;;;5080828;28;20071;-77
2021/04/26 00:29:08;;;;;;;13.65;9.40;;;12.60;54.70;;;;;;5080612;28;20024;-77
2021/04/26 00:31:34;;;;;;;17.25;10.32;;;12.60;54.80;;;;;;5088632;28;20402;-77
2021/04/26 00:33:59;;;;;;;16.80;10.32;;;12.40;54.80;;;;;;5084675;28;20012;-77
2021/04/26 00:36:25;;;;;;;16.05;10.70;;;12.50;54.60;;;;;;5089333;28;20028;-77
2021/04/26 00:38:52;;;;;;;14.45;9.77;;;12.40;54.50;;;;;;5068665;28;20013;-77
2021/04/26 00:41:17;;;;;;;15.65;9.20;;;12.30;54.90;;;;;;5080218;28;20048;-77
2021/04/26 00:43:43;;;;;;;15.68;10.32;;;12.40;54.40;;;;;;5080124;28;20020;-77
2021/04/26 00:46:11;;;;;;;16.75;9.85;;;12.40;54.90;;;;;;5080503;28;20032;-77
2021/04/26 00:48:37;;;;;;;13.65;9.07;;;12.40;54.10;;;;;;5080061;28;20116;-77
2021/04/26 00:51:03;;;;;;;16.35;9.57;;;12.40;54.80;;;;;;5080184;28;20035;-77
2021/04/26 00:53:29;;;;;;;12.77;9.02;;;12.50;54.10;;;;;;5080177;28;20021;-77
2021/04/26 00:55:55;;;;;;;14.57;9.05;;;12.30;54.30;;;;;;5080382;28;20027;-77
2021/04/26 00:58:22;;;;;;;13.68;8.40;;;12.40;54.30;;;;;;5080231;28;20043;-77
2021/04/26 01:00:48;;;;;;;15.40;9.95;;;12.40;53.90;;;;;;5080153;28;20067;-77
2021/04/26 01:03:13;;;;;;;16.42;9.20;;;12.20;53.70;;;;;;5079970;28;20024;-78
2021/04/26 01:05:39;;;;;;;15.68;9.63;;;12.30;53.40;;;;;;5080131;28;20025;-78
2021/04/26 01:08:05;;;;;;;12.98;8.73;;;12.20;53.80;;;;;;5079784;28;20020;-77
2021/04/26 01:10:34;;;;;;;12.82;9.35;;;12.40;53.90;;;;;;5080155;28;20029;-77
2021/04/26 01:13:38;;;;;;;15.23;8.75;;;12.40;53.10;;;;;;5062114;28;20032;-77
2021/04/26 01:16:20;;;;;;;15.80;9.00;;;12.50;53.10;;;;;;5079687;28;20021;-77
2021/04/26 01:19:00;;;;;;;14.10;8.75;;;12.30;53.30;;;;;;5080008;28;20020;-77
2021/04/26 01:21:44;;;;;;;15.90;8.93;;;12.30;53.50;;;;;;5079676;28;20476;-77
2021/04/26 01:24:19;;;;;;;15.52;9.70;;;12.10;53.30;;;;;;5078238;28;20024;-77
2021/04/26 01:26:57;;;;;;;14.23;9.00;;;12.20;53.20;;;;;;5079698;28;20029;-77
2021/04/26 01:29:54;;;;;;;18.05;8.80;;;12.20;53.50;;;;;;5079290;28;20052;-77
2021/04/26 01:32:43;;;;;;;14.68;8.25;;;12.40;53.20;;;;;;5074414;28;20403;-77
2021/04/26 01:35:13;;;;;;;14.45;8.75;;;12.50;52.80;;;;;;5079204;28;20609;-77
2021/04/26 01:37:40;;;;;;;13.25;8.88;;;12.20;52.80;;;;;;5075968;28;20048;-77
2021/04/26 01:40:09;;;;;;;15.20;8.85;;;12.30;53.10;;;;;;5069015;28;20068;-77
2021/04/26 01:42:37;;;;;;;15.57;9.05;;;12.20;53.20;;;;;;5079079;28;20422;-78
2021/04/26 01:45:05;;;;;;;16.15;8.85;;;12.10;53.70;;;;;;5079379;28;20024;-78
2021/04/26 01:47:34;;;;;;;13.88;9.13;;;12.00;53.50;;;;;;5079031;28;20024;-77
2021/04/26 01:50:01;;;;;;;14.73;8.75;;;12.00;53.90;;;;;;5078875;28;20027;-77
2021/04/26 01:52:27;;;;;;;15.20;8.65;;;12.00;53.60;;;;;;5078862;28;20135;-77
2021/04/26 01:54:55;;;;;;;14.35;8.93;;;12.00;53.90;;;;;;5077813;28;20017;-77
2021/04/26 01:57:22;;;;;;;16.42;8.73;;;11.80;53.90;;;;;;5078709;28;20055;-77
2021/04/26 01:59:48;;;;;;;16.23;8.95;;;12.00;53.80;;;;;;5079269;28;20017;-77
2021/04/26 02:02:17;;;;;;;16.92;8.82;;;11.90;53.60;;;;;;5092348;28;20040;-77
2021/04/26 02:04:43;;;;;;;14.40;8.25;;;12.00;53.30;;;;;;5078840;28;20020;-77
2021/04/26 02:07:11;;;;;;;16.73;8.35;;;11.90;53.40;;;;;;5078801;28;20051;-77
2021/04/26 02:09:41;;;;;;;13.60;8.63;;;11.90;53.90;;;;;;5078977;28;20021;-77
2021/04/26 02:12:08;;;;;;;15.30;8.65;;;11.90;53.20;;;;;;5065555;28;20029;-78
2021/04/26 02:14:35;;;;;;;15.40;8.05;;;11.70;53.70;;;;;;5077533;28;20028;-77
2021/04/26 02:17:03;;;;;;;15.38;8.30;;;11.80;54.20;;;;;;5078725;28;20086;-78
2021/04/26 02:19:29;;;;;;;15.63;9.48;;;11.70;53.40;;;;;;5078505;28;20467;-78
2021/04/26 02:21:55;;;;;;;11.63;8.07;;;11.70;54.10;;;;;;5078513;28;20051;-78
2021/04/26 02:24:20;;;;;;;14.10;9.15;;;11.80;54.00;;;;;;5092094;28;20478;-78
2021/04/26 02:26:47;;;;;;;13.75;8.48;;;11.80;53.90;;;;;;5078478;28;20017;-78
2021/04/26 02:29:12;;;;;;;14.82;8.63;;;11.50;54.10;;;;;;5078194;28;20031;-78
2021/04/26 02:31:41;;;;;;;16.10;8.65;;;11.60;54.30;;;;;;5078200;28;20029;-78
2021/04/26 02:34:12;;;;;;;15.40;8.85;;;11.60;54.20;;;;;;5078303;28;20041;-78
2021/04/26 02:36:43;;;;;;;14.68;8.68;;;11.50;54.20;;;;;;5078358;28;20020;-78
2021/04/26 02:39:13;;;;;;;16.67;8.63;;;11.40;54.40;;;;;;5063337;28;20422;-78
2021/04/26 02:41:42;;;;;;;13.98;8.13;;;11.40;54.80;;;;;;5078275;28;20094;-78
2021/04/26 02:44:29;;;;;;;12.73;8.60;;;11.40;54.70;;;;;;5077798;28;20082;-78
2021/04/26 02:47:09;;;;;;;15.95;8.27;;;11.30;54.80;;;;;;5077385;28;20027;-77
2021/04/26 02:49:40;;;;;;;14.93;8.68;;;11.30;55.40;;;;;;5072185;28;20013;-78
2021/04/26 02:52:07;;;;;;;14.52;8.52;;;11.30;55.40;;;;;;5077589;28;20471;-77
2021/04/26 02:54:34;;;;;;;15.48;8.77;;;11.20;55.30;;;;;;5078132;28;20023;-77
2021/04/26 02:57:02;;;;;;;15.88;9.63;;;11.10;55.70;;;;;;5077675;28;20099;-78
2021/04/26 02:59:28;;;;;;;13.57;8.60;;;11.10;55.50;;;;;;5078218;28;20023;-78
2021/04/26 03:01:55;;;;;;;12.45;8.88;;;11.20;55.30;;;;;;5077619;28;20398;-78
2021/04/26 03:04:22;;;;;;;16.10;8.40;;;11.20;55.50;;;;;;5077935;28;20051;-78
2021/04/26 03:06:51;;;;;;;13.18;8.45;;;11.10;55.60;;;;;;5077564;28;20043;-78
2021/04/26 03:09:17;;;;;;;15.65;8.63;;;11.00;56.10;;;;;;5077884;28;20012;-77
2021/04/26 03:11:45;;;;;;;15.60;9.02;;;11.10;55.60;;;;;;5089728;28;20051;-77
2021/04/26 03:14:12;;;;;;;15.38;8.57;;;11.00;55.80;;;;;;5077248;28;20032;-77
2021/04/26 03:16:39;;;;;;;15.65;9.65;;;11.10;56.00;;;;;;5091144;28;20028;-77
2021/04/26 03:19:06;;;;;;;15.15;8.38;;;11.00;55.80;;;;;;5089191;28;20020;-77
2021/04/26 03:21:34;;;;;;;14.50;8.60;;;11.10;55.70;;;;;;5078885;28;20035;-77
2021/04/26 03:24:00;;;;;;;18.08;9.18;;;11.00;55.60;;;;;;5077642;28;20487;-77
2021/04/26 03:26:27;;;;;;;13.88;8.35;;;10.90;56.10;;;;;;5077368;28;20051;-77
2021/04/26 03:28:53;;;;;;;14.57;9.07;;;11.00;56.40;;;;;;5077245;28;20027;-77
2021/04/26 03:31:21;;;;;;;17.38;9.35;;;11.10;56.00;;;;;;5077139;28;20499;-77
2021/04/26 03:33:47;;;;;;;17.02;9.30;;;10.80;56.70;;;;;;5077478;28;20017;-77
2021/04/26 03:36:14;;;;;;;14.30;8.32;;;10.80;57.00;;;;;;5077205;28;20056;-77
2021/04/26 03:38:41;;;;;;;16.77;8.93;;;10.90;57.20;;;;;;5065506;28;20009;-77
2021/04/26 03:41:08;;;;;;;12.50;8.38;;;10.80;57.10;;;;;;5075581;28;20070;-77
2021/04/26 03:43:33;;;;;;;16.80;9.25;;;10.70;57.50;;;;;;5077110;28;20387;-77
2021/04/26 03:46:00;;;;;;;16.35;10.05;;;10.70;57.40;;;;;;5077192;28;20028;-77
2021/04/26 03:48:26;;;;;;;14.82;9.25;;;10.60;58.00;;;;;;5076053;28;20024;-77
2021/04/26 03:50:52;;;;;;;13.88;8.82;;;10.70;57.50;;;;;;5076934;28;20032;-77
2021/04/26 03:53:18;;;;;;;15.05;9.13;;;10.70;57.40;;;;;;5077301;28;20439;-77
2021/04/26 03:55:44;;;;;;;16.75;9.70;;;10.80;57.20;;;;;;5077099;28;20024;-77
2021/04/26 03:58:10;;;;;;;15.32;9.50;;;10.80;57.30;;;;;;5080387;28;20020;-77
2021/04/26 04:00:36;;;;;;;14.35;9.32;;;10.60;57.40;;;;;;5081080;28;20539;-76
2021/04/26 04:03:09;;;;;;;18.08;9.35;;;10.40;58.20;;;;;;5081360;28;20020;-77
2021/04/26 04:05:37;;;;;;;15.05;9.18;;;10.60;58.10;;;;;;5068092;28;20051;-76
2021/04/26 04:08:06;;;;;;;19.80;9.77;;;10.60;57.90;;;;;;5080981;28;20020;-77
2021/04/26 04:10:32;;;;;;;15.48;9.35;;;10.60;57.40;;;;;;5081089;28;20025;-77
2021/04/26 04:12:58;;;;;;;15.98;8.93;;;10.50;57.90;;;;;;5080700;28;20021;-76
2021/04/26 04:15:24;;;;;;;18.17;8.90;;;10.40;58.00;;;;;;5073589;28;20025;-77
2021/04/26 04:17:51;;;;;;;14.57;9.35;;;10.40;58.20;;;;;;5075057;28;20099;-77
2021/04/26 04:20:17;;;;;;;15.73;8.85;;;10.40;58.20;;;;;;5080955;28;20020;-77
2021/04/26 04:22:43;;;;;;;15.98;9.73;;;10.40;58.30;;;;;;5080746;28;20020;-77
2021/04/26 04:25:10;;;;;;;17.17;9.45;;;10.40;58.00;;;;;;5080927;28;20027;-77
2021/04/26 04:27:37;;;;;;;16.75;9.45;;;10.50;58.10;;;;;;5079050;28;20099;-77
2021/04/26 04:30:07;;;;;;;15.43;9.27;;;10.30;58.00;;;;;;5080819;28;20081;-77
2021/04/26 04:32:33;;;;;;;15.75;9.65;;;10.30;58.10;;;;;;5067172;28;20076;-77
2021/04/26 04:34:59;;;;;;;16.13;9.63;;;10.20;58.50;;;;;;5079403;28;20028;-77
2021/04/26 04:37:25;;;;;;;14.35;9.82;;;10.10;59.00;;;;;;5079047;28;20028;-77
2021/04/26 04:39:51;;;;;;;13.73;9.43;;;10.00;59.40;;;;;;5068372;28;20043;-77
2021/04/26 04:42:17;;;;;;;17.40;9.13;;;10.20;58.70;;;;;;5080256;28;20088;-77
2021/04/26 04:44:43;;;;;;;13.93;8.85;;;10.10;59.00;;;;;;5088669;28;20103;-77
2021/04/26 04:47:08;;;;;;;18.02;10.20;;;10.30;58.80;;;;;;5085737;28;20063;-77
2021/04/26 04:49:34;;;;;;;16.40;9.20;;;10.20;58.80;;;;;;5080171;28;20106;-77
2021/04/26 04:52:00;;;;;;;15.85;9.48;;;10.00;59.20;;;;;;5080018;28;20039;-77
2021/04/26 04:54:26;;;;;;;13.77;9.10;;;10.10;59.40;;;;;;5080330;28;20020;-77
2021/04/26 04:56:52;;;;;;;14.93;9.15;;;10.10;58.70;;;;;;5080219;28;20106;-77
2021/04/26 04:59:19;;;;;;;18.08;9.25;;;10.10;59.10;;;;;;5080039;28;20069;-77
2021/04/26 05:01:49;;;;;;;17.92;9.40;;;10.00;58.90;;;;;;5079929;28;20391;-77
2021/04/26 05:04:15;;;;;;;16.45;10.35;;;9.90;59.20;;;;;;5080090;28;20426;-77
2021/04/26 05:06:41;;;;;;;20.48;9.32;;;10.10;58.90;;;;;;5082474;28;20368;-75
2021/04/26 05:09:08;;;;;;;16.70;8.93;;;10.20;58.70;;;;;;5089798;28;20035;-75
2021/04/26 05:11:33;;;;;;;14.85;8.35;;;10.10;58.80;;;;;;5079781;28;20036;-74
2021/04/26 05:14:00;;;;;;;16.98;9.48;;;10.10;59.00;;;;;;5079549;28;20029;-75
2021/04/26 05:16:27;;;;;;;16.65;9.98;;;9.90;59.60;;;;;;5078417;28;20071;-74
2021/04/26 05:18:53;;;;;;;17.73;9.10;;;9.90;59.70;;;;;;5090205;28;20028;-73
2021/04/26 05:21:19;;;;;;;15.32;9.80;;;10.10;58.90;;;;;;5082896;28;20020;-79
2021/04/26 05:23:45;;;;;;;20.00;11.48;;;10.00;59.10;;;;;;5079887;28;20488;-79
2021/04/26 05:26:11;;;;;;;16.85;9.35;;;10.00;59.20;;;;;;5079576;28;20050;-84
2021/04/26 05:28:37;;;;;;;17.75;9.38;;;10.20;59.40;;;;;;5079635;28;20503;-81
2021/04/26 05:31:03;;;;;;;15.43;9.27;;;10.10;59.30;;;;;;5079356;28;20025;-80
2021/04/26 05:33:28;;;;;;;15.82;9.85;;;10.00;59.30;;;;;;5079727;28;20021;-80
2021/04/26 05:35:54;;;;;;;19.67;9.35;;;10.10;59.50;;;;;;5079358;28;20023;-82
2021/04/26 05:38:20;;;;;;;16.80;9.07;;;10.10;59.10;;;;;;5069082;28;20082;-76
2021/04/26 05:40:47;;;;;;;19.88;9.63;;;10.20;59.10;;;;;;5073585;28;20049;-78
2021/04/26 05:43:13;;;;;;;18.10;9.10;;;10.30;58.50;;;;;;5078104;28;20029;-75
2021/04/26 05:45:41;;;;;;;16.45;9.48;;;10.30;58.50;;;;;;5079149;28;20024;-71
2021/04/26 05:48:07;;;;;;;15.10;9.10;;;10.40;58.80;;;;;;5079191;28;20540;-77
2021/04/26 05:50:33;;;;;;;17.80;9.93;;;10.40;58.40;;;;;;5079045;28;20059;-82
2021/04/26 05:52:59;;;;;;;15.13;9.27;;;10.40;58.30;;;;;;5079271;28;20024;-81
2021/04/26 05:55:26;;;;;;;16.27;9.30;;;10.40;58.00;;;;;;5079005;28;20028;-78
2021/04/26 05:57:52;;;;;;;19.45;9.85;;;10.40;58.10;;;;;;5078924;28;20031;-84
2021/04/26 06:00:18;;;;;;;12.73;8.63;;;10.20;59.10;;;;;;5077848;28;20025;-78
2021/04/26 06:02:44;;;;;;;13.45;8.88;;;10.20;58.80;;;;;;5079014;28;20442;-79
2021/04/26 06:05:10;;;;;;;16.38;9.70;;;10.20;59.10;;;;;;5073221;28;20071;-82
2021/04/26 06:07:36;;;;;;;15.63;9.65;;;10.20;58.30;;;;;;5075941;28;20027;-78
2021/04/26 06:10:03;;;;;;;27.85;17.27;;;10.30;58.90;;;;;;5077227;28;20364;-76
2021/04/26 06:12:29;;;;;;;16.52;9.90;;;10.30;58.40;;;;;;5076871;28;20017;-82
2021/04/26 06:14:55;;;;;;;16.67;9.85;;;10.40;58.50;;;;;;5077573;28;20032;-81
2021/04/26 06:17:21;;;;;;;15.40;9.65;;;10.30;58.60;;;;;;5078505;28;20403;-81
2021/04/26 06:19:47;;;;;;;16.92;9.95;;;10.30;58.50;;;;;;5067726;28;20029;-78
2021/04/26 06:22:12;;;;;;;15.40;9.45;;;10.40;58.40;;;;;;5065129;28;20021;-86
2021/04/26 06:24:38;;;;;;;18.50;9.05;;;10.30;58.60;;;;;;5070139;28;20028;-80
2021/04/26 06:27:04;;;;;;;20.52;9.95;;;10.40;57.90;;;;;;5071662;28;20083;-88
2021/04/26 06:29:30;;;;;;;19.13;9.65;;;10.30;58.20;;;;;;5078213;28;20017;-83
2021/04/26 06:31:56;;;;;;;16.08;9.73;;;10.40;58.40;;;;;;5075159;28;20059;-86
2021/04/26 06:34:22;;;;;;;15.02;9.88;;;10.40;57.90;;;;;;5083164;28;20385;-83
2021/04/26 06:36:47;;;;;;;18.75;9.23;;;10.30;58.00;;;;;;5094683;28;20528;-83
2021/04/26 06:39:13;;;;;;;14.73;9.18;;;10.50;57.80;;;;;;5064196;28;20017;-84
2021/04/26 06:41:39;;;;;;;16.92;9.60;;;10.40;57.30;;;;;;5077489;28;20083;-83
2021/04/26 06:44:05;;;;;;;14.30;9.13;;;10.50;57.70;;;;;;5091207;28;20059;-82
2021/04/26 06:46:34;;;;;;;14.25;9.07;;;11.20;56.30;;;;;;5075608;28;20057;-83
2021/04/26 06:49:01;;;;;;;15.68;8.15;;;11.60;54.80;;;;;;5077871;28;20020;-84
2021/04/26 06:51:27;;;;;;;18.27;9.00;;;12.40;53.50;;;;;;5077095;28;20027;-83
2021/04/26 06:53:53;;;;;;;15.43;9.05;;;15.90;49.10;;;;;;5077368;28;20027;-84
2021/04/26 06:56:19;;;;;;;16.85;8.65;;;16.20;45.30;;;;;;5077963;28;20025;-84
2021/04/26 06:58:45;;;;;;;13.98;9.05;;;17.80;44.60;;;;;;5076877;28;20059;-84
2021/04/26 07:01:11;;;;;;;14.85;8.68;;;18.60;41.70;;;;;;5076000;28;20052;-83
2021/04/26 07:03:36;;;;;;;12.25;8.80;;;19.50;41.60;;;;;;5077235;28;20025;-85
2021/04/26 07:06:02;;;;;;;13.05;8.20;;;20.00;40.30;;;;;;5077712;28;20078;-84
2021/04/26 07:08:28;;;;;;;15.20;8.73;;;19.10;39.70;;;;;;5076865;28;20016;-84
2021/04/26 07:10:54;;;;;;;14.85;8.73;;;19.50;41.10;;;;;;5077300;28;20498;-84
2021/04/26 07:13:20;;;;;;;13.63;8.63;;;19.20;41.20;;;;;;5076834;28;20028;-84
2021/04/26 07:15:46;;;;;;;13.52;8.63;;;19.20;40.90;;;;;;5076437;28;20024;-84
2021/04/26 07:18:12;;;;;;;15.18;8.90;;;19.40;41.00;;;;;;5077937;28;20017;-84
2021/04/26 07:20:38;;;;;;;13.23;8.95;;;19.00;42.30;;;;;;5084836;28;20043;-86
2021/04/26 07:23:04;;;;;;;12.77;9.05;;;18.90;41.60;;;;;;5077145;28;20482;-85
2021/04/26 07:25:30;;;;;;;16.80;9.15;;;19.00;41.70;;;;;;5077503;28;20059;-85
2021/04/26 07:27:56;;;;;;;15.85;8.55;;;18.20;41.60;;;;;;5081849;28;20031;-83
2021/04/26 07:30:22;;;;;;;14.63;8.55;;;18.10;41.60;;;;;;5085228;28;20025;-83
2021/04/26 07:32:49;;;;;;;13.32;8.32;;;18.30;42.20;;;;;;5088794;28;20032;-83
2021/04/26 07:35:15;;;;;;;14.25;9.13;;;18.30;41.80;;;;;;5077326;28;20021;-83
2021/04/26 07:37:43;;;;;;;13.75;8.70;;;17.90;41.80;;;;;;5075318;28;20017;-83
2021/04/26 07:40:12;;;;;;;12.13;8.52;;;18.40;42.10;;;;;;5067128;28;20098;-84
2021/04/26 07:42:39;;;;;;;12.10;8.18;;;17.60;41.50;;;;;;5075710;28;20048;-83
2021/04/26 07:45:06;;;;;;;13.05;8.80;;;18.00;42.70;;;;;;5077114;28;20021;-83
2021/04/26 07:47:32;;;;;;;15.65;9.27;;;18.30;42.60;;;;;;5076458;28;20107;-85
2021/04/26 07:49:57;;;;;;;16.80;9.05;;;18.30;41.80;;;;;;5077357;28;20059;-85
2021/04/26 07:52:23;;;;;;;13.20;8.73;;;18.30;41.60;;;;;;5076781;28;20028;-85
2021/04/26 07:54:49;;;;;;;15.48;8.95;;;17.80;41.90;;;;;;5077132;28;20096;-85
2021/04/26 07:57:15;;;;;;;14.13;8.80;;;18.20;41.10;;;;;;5076545;28;20051;-83
2021/04/26 07:59:40;;;;;;;11.75;8.10;;;18.30;42.00;;;;;;5076931;28;20021;-81
2021/04/26 08:02:07;;;;;;;15.30;8.05;;;19.00;41.40;;;;;;5076885;28;20029;-83
2021/04/26 08:04:33;;;;;;;13.95;9.13;;;19.10;40.80;;;;;;5076899;28;20021;-84
2021/04/26 08:06:58;;;;;;;11.85;8.38;;;19.30;40.60;;;;;;5076839;28;20548;-85
2021/04/26 08:09:24;;;;;;;10.38;8.18;;;19.30;40.50;;;;;;5076772;28;20027;-89
2021/04/26 08:11:50;;;;;;;14.30;9.18;;;19.20;39.50;;;;;;5074798;28;20055;-88
2021/04/26 08:14:16;;;;;;;13.52;8.45;;;19.50;40.70;;;;;;5073546;28;20032;-88
2021/04/26 08:16:43;;;;;;;13.75;8.60;;;19.70;40.40;;;;;;5088810;28;20024;-88
2021/04/26 08:19:10;;;;;;;12.82;8.60;;;19.80;39.80;;;;;;5076156;28;20839;-88
2021/04/26 08:21:36;;;;;;;13.70;9.15;;;20.20;40.70;;;;;;5061325;28;20036;-85
2021/04/26 08:24:03;;;;;;;15.50;9.35;;;20.20;40.30;;;;;;5074685;28;20517;-79
2021/04/26 08:26:29;;;;;;;14.93;9.02;;;20.00;37.60;;;;;;5073903;28;20406;-83
2021/04/26 08:28:55;;;;;;;11.55;9.30;;;20.30;39.90;;;;;;5068156;28;20029;-81
2021/04/26 08:31:21;;;;;;;14.45;9.10;;;20.60;39.20;;;;;;5072993;28;20039;-88
2021/04/26 08:33:46;;;;;;;11.98;9.07;;;20.10;38.20;;;;;;5073212;28;20016;-84
2021/04/26 08:36:13;;;;;;;13.10;8.30;;;20.30;38.80;;;;;;5075638;28;20124;-83
2021/04/26 08:38:40;;;;;;;12.60;8.32;;;20.90;39.10;;;;;;5073371;28;20043;-83
2021/04/26 08:41:12;;;;;;;13.93;8.45;;;20.70;38.90;;;;;;5067397;28;20491;-79
2021/04/26 08:43:38;;;;;;;;;;;20.60;37.40;;;;;;5066598;28;20043;-83
2021/04/26 08:46:04;;;;;;;16.38;10.68;;;20.50;37.20;;;;;;5080313;28;19908;-82
2021/04/26 08:48:30;;;;;;;11.82;8.25;;;20.80;39.50;;;;;;5079983;28;20028;-83
2021/04/26 08:50:56;;;;;;;12.52;8.40;;;21.00;38.30;;;;;;5079427;28;20029;-83
2021/04/26 08:53:22;;;;;;;11.70;8.60;;;21.00;36.50;;;;;;5082392;28;20037;-82
2021/04/26 08:55:48;;;;;;;12.02;8.20;;;20.60;38.00;;;;;;5077118;28;20059;-83
2021/04/26 08:58:14;;;;;;;12.73;8.65;;;20.80;38.10;;;;;;5078498;28;20021;-83
2021/04/26 09:00:40;;;;;;;13.00;8.18;;;21.70;38.80;;;;;;5079514;28;20064;-83
2021/04/26 09:03:06;;;;;;;11.20;8.05;;;22.10;36.80;;;;;;5078962;28;20048;-83
2021/04/26 09:05:38;;;;;;;12.02;7.97;;;22.50;37.50;;;;;;5079950;28;20025;-82
2021/04/26 09:08:06;;;;;;;11.45;7.60;;;21.50;35.30;;;;;;5081381;28;20032;-82
2021/04/26 09:10:45;;;;;;;14.57;8.57;;;22.20;37.50;;;;;;5090964;28;20483;-82
2021/04/26 09:13:23;;;;;;;10.20;7.28;;;22.60;35.20;;;;;;5078819;28;20497;-82
2021/04/26 09:16:07;;;;;;;11.45;7.15;;;22.30;36.90;;;;;;5079308;28;20024;-81
2021/04/26 09:18:45;;;;;;;11.52;7.03;;;23.10;35.90;;;;;;5073164;28;20016;-84
2021/04/26 09:21:29;;;;;;;11.20;7.60;;;23.00;35.60;;;;;;5079426;28;20031;-81
2021/04/26 09:24:12;;;;;;;14.18;7.30;;;23.20;36.40;;;;;;5079719;28;20534;-82
2021/04/26 09:26:39;;;;;;;12.63;7.85;;;22.90;34.60;;;;;;5068291;28;20122;-83
2021/04/26 09:29:25;;;;;;;12.38;7.32;;;22.80;35.50;;;;;;5078869;28;20031;-82
2021/04/26 09:32:09;;;;;;;12.82;7.40;;;21.90;35.40;;;;;;5079111;28;20031;-82
2021/04/26 09:34:39;;;;;;;10.40;7.45;;;22.10;35.50;;;;;;5071447;28;20021;-81
2021/04/26 09:37:18;;;;;;;11.90;7.60;;;22.10;35.00;;;;;;5079230;28;20171;-82
2021/04/26 09:40:12;;;;;;;10.18;7.55;;;21.30;36.00;;;;;;5064905;28;20059;-82
2021/04/26 09:42:46;;;;;;;10.02;7.25;;;21.80;35.60;;;;;;5077433;28;20020;-81
2021/04/26 09:45:23;;;;;;;12.32;7.15;;;22.10;36.50;;;;;;5079477;28;20111;-80
2021/04/26 09:47:51;;;;;;;11.80;7.28;;;22.00;35.30;;;;;;5073082;28;20107;-81
2021/04/26 09:50:17;;;;;;;14.52;7.47;;;21.80;37.00;;;;;;5078462;28;20078;-84
2021/04/26 09:52:43;;;;;;;13.63;7.75;;;21.70;36.60;;;;;;5077440;28;20020;-85
2021/04/26 09:55:29;;;;;;;10.40;7.32;;;21.70;35.20;;;;;;5078583;28;20021;-84
2021/04/26 09:57:56;;;;;;;10.50;7.63;;;22.00;35.90;;;;;;5078769;28;20017;-84
2021/04/26 10:00:23;;;;;;;11.35;6.88;;;21.70;36.30;;;;;;5078684;28;20070;-84
2021/04/26 10:02:50;;;;;;;9.63;7.45;;;21.30;35.50;;;;;;5078912;28;20017;-83
2021/04/26 10:05:17;;;;;;;11.70;7.10;;;21.70;36.10;;;;;;5077521;28;20032;-83
2021/04/26 10:07:43;;;;;;;11.25;6.85;;;21.80;35.60;;;;;;5078651;28;20164;-83
2021/04/26 10:10:09;;;;;;;11.05;7.00;;;21.90;35.20;;;;;;5078370;28;20039;-83
2021/04/26 10:12:35;;;;;;;11.60;7.25;;;21.70;33.50;;;;;;5078373;28;20044;-84
2021/04/26 10:15:02;;;;;;;10.40;7.38;;;21.50;35.50;;;;;;5074149;28;20071;-84
2021/04/26 10:17:29;;;;;;;13.10;7.47;;;21.00;36.40;;;;;;5078241;28;20440;-84
2021/04/26 10:19:54;;;;;;;11.85;7.45;;;21.50;36.90;;;;;;5078115;28;20023;-84
2021/04/26 10:22:38;;;;;;;12.70;7.20;;;21.70;36.40;;;;;;5078271;28;20016;-83
2021/04/26 10:25:06;;;;;;;14.00;7.40;;;21.30;36.10;;;;;;5071260;28;20035;-83
2021/04/26 10:27:38;;;;;;;11.95;7.10;;;21.50;36.80;;;;;;5083065;28;20020;-83
2021/04/26 10:30:06;;;;;;;10.30;7.30;;;21.40;36.10;;;;;;5089004;28;20028;-83
2021/04/26 10:32:51;;;;;;;12.88;7.50;;;21.50;37.50;;;;;;5077835;28;20493;-81
2021/04/26 10:35:17;;;;;;;11.85;6.80;;;20.60;35.80;;;;;;5077863;28;20028;-82
2021/04/26 10:37:43;;;;;;;10.18;7.20;;;20.70;36.40;;;;;;5076416;28;20020;-82
2021/04/26 10:40:13;;;;;;;11.13;7.03;;;20.50;36.40;;;;;;5077759;28;20047;-85
2021/04/26 10:42:49;;;;;;;10.20;6.93;;;20.60;34.90;;;;;;5066787;28;20032;-83
2021/04/26 10:45:20;;;;;;;8.68;6.78;;;20.40;37.40;;;;;;5072122;28;20446;-80
2021/04/26 10:48:04;;;;;;;11.15;7.15;;;20.80;35.80;;;;;;5077602;28;20042;-76
2021/04/26 10:50:30;;;;;;;11.35;7.55;;;20.50;36.10;;;;;;5077107;28;20033;-75
2021/04/26 10:52:59;;;;;;;9.65;6.88;;;20.40;36.40;;;;;;5072080;28;20025;-78
2021/04/26 10:55:25;;;;;;;11.90;7.78;;;20.20;36.20;;;;;;5068257;28;20021;-80
2021/04/26 10:57:58;;;;;;;10.85;6.90;;;20.30;36.20;;;;;;5071692;28;20492;-83
2021/04/26 11:00:27;;;;;;;11.80;6.95;;;20.10;35.70;;;;;;5075925;28;20379;-77
2021/04/26 11:03:09;;;;;;;11.95;7.40;;;20.20;35.10;;;;;;5077427;28;20162;-77
2021/04/26 11:05:52;;;;;;;14.45;7.22;;;20.40;37.60;;;;;;5076355;28;20027;-79
2021/04/26 11:08:31;;;;;;;11.48;7.25;;;20.70;36.10;;;;;;5075157;28;20044;-77
2021/04/26 11:11:13;;;;;;;10.40;6.80;;;20.60;36.20;;;;;;5083314;28;20489;-83
2021/04/26 11:13:47;;;;;;;10.98;6.35;;;20.80;36.70;;;;;;5082050;28;20016;-86
2021/04/26 11:16:16;;;;;;;12.95;6.72;;;21.00;36.60;;;;;;5076262;28;20063;-83
2021/04/26 11:18:54;;;;;;;10.80;7.22;;;21.00;36.10;;;;;;5069287;28;20084;-76
2021/04/26 11:21:41;;;;;;;11.15;6.43;;;20.90;35.90;;;;;;5065030;28;20479;-75
2021/04/26 11:24:11;;;;;;;10.25;6.43;;;21.10;35.90;;;;;;5074714;28;20033;-75
2021/04/26 11:26:36;;;;;;;9.13;6.07;;;21.30;35.90;;;;;;5071425;28;20101;-76
2021/04/26 11:29:04;;;;;;;10.45;6.82;;;21.50;35.50;;;;;;5070404;28;20036;-77
2021/04/26 11:31:41;;;;;;;12.07;6.50;;;21.60;36.00;;;;;;5075560;28;20044;-76
2021/04/26 11:34:17;;;;;;;8.95;6.00;;;21.30;35.70;;;;;;5075118;28;20016;-75
2021/04/26 11:37:01;;;;;;;10.55;5.90;;;21.20;35.80;;;;;;5068162;28;20020;-75
2021/04/26 11:39:29;;;;;;;9.02;6.28;;;21.10;35.50;;;;;;5075186;28;20116;-76
2021/04/26 11:41:55;;;;;;;9.68;5.70;;;20.80;34.80;;;;;;5073097;28;20032;-76
2021/04/26 11:44:32;;;;;;;8.05;5.35;;;21.00;35.60;;;;;;5076317;28;20028;-75
2021/04/26 11:47:06;;;;;;;11.82;5.65;;;21.10;34.40;;;;;;5076804;28;20444;-75
2021/04/26 11:49:44;;;;;;;10.02;5.45;;;21.10;35.40;;;;;;5075702;28;20560;-76
2021/04/26 11:52:18;;;;;;;8.52;5.40;;;21.30;34.50;;;;;;5076176;28;20083;-76
2021/04/26 11:54:46;;;;;;;11.57;5.47;;;20.90;34.60;;;;;;5074780;28;20146;-76
2021/04/26 11:57:20;;;;;;;8.18;5.15;;;21.10;35.30;;;;;;5074548;28;20028;-76
2021/04/26 12:00:01;;;;;;;9.13;5.70;;;21.00;34.70;;;;;;5074000;28;20089;-76
2021/04/26 12:02:36;;;;;;;8.50;5.47;;;21.10;35.00;;;;;;5075750;28;20033;-76
2021/04/26 12:05:08;;;;;;;9.43;5.82;;;21.00;35.00;;;;;;5071922;28;20444;-76
2021/04/26 12:07:35;;;;;;;8.40;5.47;;;20.90;35.40;;;;;;5075429;28;20031;-76
2021/04/26 12:10:09;;;;;;;8.23;4.68;;;21.00;35.00;;;;;;5075423;28;20088;-75
2021/04/26 12:12:36;;;;;;;9.90;5.00;;;20.90;35.40;;;;;;5071813;28;20510;-75
2021/04/26 12:15:11;;;;;;;9.35;5.20;;;21.00;34.60;;;;;;5075293;28;20078;-75
2021/04/26 12:17:41;;;;;;;7.70;4.70;;;20.90;34.80;;;;;;5076037;28;20111;-75
2021/04/26 12:20:15;;;;;;;10.82;4.90;;;21.00;35.50;;;;;;5072161;28;20033;-76
2021/04/26 12:22:42;;;;;;;11.27;5.30;;;20.70;33.70;;;;;;5080376;28;20096;-75
2021/04/26 12:25:11;;;;;;;12.07;5.68;;;20.90;34.70;;;;;;5077339;28;20020;-75
2021/04/26 12:27:38;;;;;;;11.38;5.07;;;21.20;35.00;;;;;;5080246;28;20036;-75
2021/04/26 12:30:18;;;;;;;10.60;5.45;;;21.10;36.00;;;;;;5079962;28;20028;-75
2021/04/26 12:32:46;;;;;;;8.30;5.13;;;21.10;35.40;;;;;;5080094;28;20570;-75
2021/04/26 12:35:32;;;;;;;9.93;5.43;;;21.20;35.40;;;;;;5092953;28;20417;-75
2021/04/26 12:38:00;;;;;;;13.27;5.88;;;21.00;34.90;;;;;;5066376;28;20551;-75
2021/04/26 12:40:37;;;;;;;6.85;4.85;;;20.90;34.50;;;;;;5078924;28;20131;-75
2021/04/26 12:43:10;;;;;;;7.53;4.85;;;21.00;34.50;;;;;;5080075;28;20498;-75
2021/04/26 12:45:41;;;;;;;9.68;5.10;;;21.10;34.80;;;;;;5080165;28;20020;-75
2021/04/26 12:48:18;;;;;;;10.00;5.40;;;21.30;35.80;;;;;;5079631;28;20029;-75